Greenville, Illinois
Current Conditions -  °F | °C
As of 1:35 PM on Thursday 27 Nov 2014 (Local Time) from K3LF Reporting Station
Overcast Overcast  
Wind Chill: 18°   Ceiling: 2500
Heat Index: 28°   Visibility: 10mi
Dew Point: 18°   Wind: 10mph
Humidity: 67%   Direction: 310°NW
Pressure: 30.44"   Gusts: NA
Location:  38.89°N, 89.41°W
Report Text: K3LF 271935Z AUTO 31009KT 10SM OVC025 M02/M08 A3044 RMK AO2 T10251079
Loading
Personal Weather Stations






























Interactive Weather Map New forecast layout! Learn more

10-Day Weather Forecast

Advertisements
Track Severe Weather on mobile